Terminal Aerodrome Forecast
Issued by NWS

Home | Current Version | Previous Version | Text Only | Print | Product List | Glossary On
Versions: 1 2 3 4 5 6 7 8 9 10 11 12 13 14 15 16 17 18 19 20 21 22 23 24 25 26 27 28 29
000
FTUS46 KSEW 301100 RRA
TAFSEA
TAF
KSEA 301151Z 3012/0118 19005KT P6SM OVC010
     FM301800 19009KT P6SM BKN020 OVC035
     FM302000 23009KT P6SM VCSH BKN030 OVC050 PROB30 3021/3024 -SHRA
     FM010000 VRB05KT P6SM SCT030 BKN050 PROB30 0100/0106 -SHRA
     FM010600 19005KT P6SM BKN025 BKN050
     FM011200 17005KT P6SM OVC010=

USA.gov is the U.S. government's official web portal to all federal, state and local government web resources and services.